sensor_id;sensor_type;location;lat;lon;timestamp;P1;durP1;ratioP1;P2;durP2;ratioP2
19024;SDS011;9645;51.448;6.260;2023-02-07T00:00:46;36.25;;;11.25;;
19024;SDS011;9645;51.448;6.260;2023-02-07T00:03:14;35.35;;;10.77;;
19024;SDS011;9645;51.448;6.260;2023-02-07T00:05:41;36.50;;;11.82;;
19024;SDS011;9645;51.448;6.260;2023-02-07T00:08:08;37.17;;;12.65;;
19024;SDS011;9645;51.448;6.260;2023-02-07T00:10:35;31.73;;;10.98;;
19024;SDS011;9645;51.448;6.260;2023-02-07T00:13:02;36.63;;;12.23;;
19024;SDS011;9645;51.448;6.260;2023-02-07T00:15:29;54.15;;;13.13;;
19024;SDS011;9645;51.448;6.260;2023-02-07T00:17:56;62.90;;;13.15;;
19024;SDS011;9645;51.448;6.260;2023-02-07T00:20:25;39.92;;;12.45;;
19024;SDS011;9645;51.448;6.260;2023-02-07T00:22:52;49.60;;;13.05;;
19024;SDS011;9645;51.448;6.260;2023-02-07T00:25:19;43.55;;;11.65;;
19024;SDS011;9645;51.448;6.260;2023-02-07T00:27:47;40.88;;;13.07;;
19024;SDS011;9645;51.448;6.260;2023-02-07T00:30:16;33.38;;;12.10;;
19024;SDS011;9645;51.448;6.260;2023-02-07T00:32:43;35.13;;;13.55;;
19024;SDS011;9645;51.448;6.260;2023-02-07T00:35:10;35.03;;;12.68;;
19024;SDS011;9645;51.448;6.260;2023-02-07T00:37:38;37.97;;;12.95;;
19024;SDS011;9645;51.448;6.260;2023-02-07T00:40:05;42.10;;;12.50;;
19024;SDS011;9645;51.448;6.260;2023-02-07T00:42:33;32.65;;;11.10;;
19024;SDS011;9645;51.448;6.260;2023-02-07T00:45:00;44.15;;;12.60;;
19024;SDS011;9645;51.448;6.260;2023-02-07T00:47:27;34.22;;;11.52;;
19024;SDS011;9645;51.448;6.260;2023-02-07T00:49:54;34.55;;;12.70;;
19024;SDS011;9645;51.448;6.260;2023-02-07T00:52:20;39.85;;;13.15;;
19024;SDS011;9645;51.448;6.260;2023-02-07T00:54:49;51.20;;;13.40;;
19024;SDS011;9645;51.448;6.260;2023-02-07T00:57:16;38.92;;;12.20;;
19024;SDS011;9645;51.448;6.260;2023-02-07T00:59:43;36.25;;;13.50;;
19024;SDS011;9645;51.448;6.260;2023-02-07T01:02:10;41.20;;;13.15;;
19024;SDS011;9645;51.448;6.260;2023-02-07T01:04:37;46.88;;;13.68;;
19024;SDS011;9645;51.448;6.260;2023-02-07T01:07:04;37.22;;;12.98;;
19024;SDS011;9645;51.448;6.260;2023-02-07T01:09:31;30.52;;;11.48;;
19024;SDS011;9645;51.448;6.260;2023-02-07T01:12:00;42.00;;;14.48;;
19024;SDS011;9645;51.448;6.260;2023-02-07T01:14:27;51.83;;;14.65;;
19024;SDS011;9645;51.448;6.260;2023-02-07T01:16:54;41.00;;;13.57;;
19024;SDS011;9645;51.448;6.260;2023-02-07T01:19:21;40.15;;;12.77;;
19024;SDS011;9645;51.448;6.260;2023-02-07T01:21:48;41.83;;;14.57;;
19024;SDS011;9645;51.448;6.260;2023-02-07T01:24:15;43.40;;;14.88;;
19024;SDS011;9645;51.448;6.260;2023-02-07T01:26:42;48.55;;;15.80;;
19024;SDS011;9645;51.448;6.260;2023-02-07T01:29:12;47.60;;;15.30;;
19024;SDS011;9645;51.448;6.260;2023-02-07T01:31:40;37.70;;;14.15;;
19024;SDS011;9645;51.448;6.260;2023-02-07T01:34:09;47.35;;;15.30;;
19024;SDS011;9645;51.448;6.260;2023-02-07T01:36:37;46.30;;;14.98;;
19024;SDS011;9645;51.448;6.260;2023-02-07T01:39:05;40.67;;;13.60;;
19024;SDS011;9645;51.448;6.260;2023-02-07T01:41:34;44.03;;;13.32;;
19024;SDS011;9645;51.448;6.260;2023-02-07T01:44:02;52.92;;;16.17;;
19024;SDS011;9645;51.448;6.260;2023-02-07T01:46:33;39.85;;;14.38;;
19024;SDS011;9645;51.448;6.260;2023-02-07T01:49:02;57.65;;;16.25;;
19024;SDS011;9645;51.448;6.260;2023-02-07T01:51:33;42.72;;;13.85;;
19024;SDS011;9645;51.448;6.260;2023-02-07T01:54:02;40.20;;;13.00;;
19024;SDS011;9645;51.448;6.260;2023-02-07T01:56:33;59.33;;;16.20;;
19024;SDS011;9645;51.448;6.260;2023-02-07T01:59:06;59.65;;;16.17;;
19024;SDS011;9645;51.448;6.260;2023-02-07T02:01:34;47.17;;;15.30;;
19024;SDS011;9645;51.448;6.260;2023-02-07T02:04:01;50.53;;;16.50;;
19024;SDS011;9645;51.448;6.260;2023-02-07T02:06:29;45.33;;;14.55;;
19024;SDS011;9645;51.448;6.260;2023-02-07T02:09:06;49.22;;;14.25;;
19024;SDS011;9645;51.448;6.260;2023-02-07T02:12:01;34.80;;;11.95;;
19024;SDS011;9645;51.448;6.260;2023-02-07T02:14:46;46.90;;;14.80;;
19024;SDS011;9645;51.448;6.260;2023-02-07T02:17:32;46.50;;;14.18;;
19024;SDS011;9645;51.448;6.260;2023-02-07T02:20:12;58.03;;;15.07;;
19024;SDS011;9645;51.448;6.260;2023-02-07T02:23:00;42.42;;;14.18;;
19024;SDS011;9645;51.448;6.260;2023-02-07T02:25:41;52.20;;;15.25;;
19024;SDS011;9645;51.448;6.260;2023-02-07T02:28:40;38.50;;;12.68;;
19024;SDS011;9645;51.448;6.260;2023-02-07T02:31:42;38.58;;;13.30;;
19024;SDS011;9645;51.448;6.260;2023-02-07T02:34:39;35.28;;;12.02;;
19024;SDS011;9645;51.448;6.260;2023-02-07T02:37:13;45.28;;;12.90;;
19024;SDS011;9645;51.448;6.260;2023-02-07T02:39:49;36.42;;;11.65;;
19024;SDS011;9645;51.448;6.260;2023-02-07T02:42:22;46.38;;;13.95;;
19024;SDS011;9645;51.448;6.260;2023-02-07T02:44:53;47.90;;;13.80;;
19024;SDS011;9645;51.448;6.260;2023-02-07T02:47:26;34.10;;;12.55;;
19024;SDS011;9645;51.448;6.260;2023-02-07T02:49:56;36.50;;;12.68;;
19024;SDS011;9645;51.448;6.260;2023-02-07T02:52:24;43.63;;;13.60;;
19024;SDS011;9645;51.448;6.260;2023-02-07T02:54:52;52.88;;;14.10;;
19024;SDS011;9645;51.448;6.260;2023-02-07T02:57:27;46.38;;;13.20;;
19024;SDS011;9645;51.448;6.260;2023-02-07T03:00:18;33.10;;;11.90;;
19024;SDS011;9645;51.448;6.260;2023-02-07T03:03:01;41.20;;;13.30;;
19024;SDS011;9645;51.448;6.260;2023-02-07T03:05:54;36.75;;;11.70;;
19024;SDS011;9645;51.448;6.260;2023-02-07T03:08:28;44.50;;;13.05;;
19024;SDS011;9645;51.448;6.260;2023-02-07T03:11:02;29.90;;;11.35;;
19024;SDS011;9645;51.448;6.260;2023-02-07T03:13:35;36.40;;;12.25;;
19024;SDS011;9645;51.448;6.260;2023-02-07T03:16:15;29.73;;;10.65;;
19024;SDS011;9645;51.448;6.260;2023-02-07T03:18:48;36.33;;;11.05;;
19024;SDS011;9645;51.448;6.260;2023-02-07T03:21:24;35.10;;;13.10;;
19024;SDS011;9645;51.448;6.260;2023-02-07T03:23:55;35.63;;;11.98;;
19024;SDS011;9645;51.448;6.260;2023-02-07T03:26:25;38.70;;;11.65;;
19024;SDS011;9645;51.448;6.260;2023-02-07T03:28:54;45.03;;;13.65;;
19024;SDS011;9645;51.448;6.260;2023-02-07T03:31:24;45.40;;;13.38;;
19024;SDS011;9645;51.448;6.260;2023-02-07T03:33:57;36.00;;;12.85;;
19024;SDS011;9645;51.448;6.260;2023-02-07T03:36:30;42.10;;;11.98;;
19024;SDS011;9645;51.448;6.260;2023-02-07T03:39:02;36.00;;;12.02;;
19024;SDS011;9645;51.448;6.260;2023-02-07T03:41:30;34.28;;;11.20;;
19024;SDS011;9645;51.448;6.260;2023-02-07T03:44:00;37.70;;;11.77;;
19024;SDS011;9645;51.448;6.260;2023-02-07T03:46:31;36.47;;;10.05;;
19024;SDS011;9645;51.448;6.260;2023-02-07T03:49:00;31.85;;;10.80;;
19024;SDS011;9645;51.448;6.260;2023-02-07T03:51:27;40.40;;;12.55;;
19024;SDS011;9645;51.448;6.260;2023-02-07T03:53:55;38.90;;;11.90;;
19024;SDS011;9645;51.448;6.260;2023-02-07T03:56:22;36.45;;;11.13;;
19024;SDS011;9645;51.448;6.260;2023-02-07T03:58:49;40.78;;;13.63;;
19024;SDS011;9645;51.448;6.260;2023-02-07T04:01:16;39.17;;;11.77;;
19024;SDS011;9645;51.448;6.260;2023-02-07T04:03:43;37.10;;;13.00;;
19024;SDS011;9645;51.448;6.260;2023-02-07T04:06:10;34.85;;;11.15;;
19024;SDS011;9645;51.448;6.260;2023-02-07T04:08:37;39.95;;;12.82;;
19024;SDS011;9645;51.448;6.260;2023-02-07T04:11:06;35.92;;;12.60;;
19024;SDS011;9645;51.448;6.260;2023-02-07T04:13:33;33.00;;;11.15;;
19024;SDS011;9645;51.448;6.260;2023-02-07T04:15:59;41.35;;;13.30;;
19024;SDS011;9645;51.448;6.260;2023-02-07T04:18:27;31.75;;;11.00;;
19024;SDS011;9645;51.448;6.260;2023-02-07T04:20:59;37.10;;;12.38;;
19024;SDS011;9645;51.448;6.260;2023-02-07T04:23:26;34.20;;;12.02;;
19024;SDS011;9645;51.448;6.260;2023-02-07T04:25:53;31.77;;;10.93;;
19024;SDS011;9645;51.448;6.260;2023-02-07T04:28:22;38.15;;;12.05;;
19024;SDS011;9645;51.448;6.260;2023-02-07T04:30:49;32.78;;;9.98;;
19024;SDS011;9645;51.448;6.260;2023-02-07T04:33:16;34.80;;;10.88;;
19024;SDS011;9645;51.448;6.260;2023-02-07T04:35:45;36.22;;;10.80;;
19024;SDS011;9645;51.448;6.260;2023-02-07T04:38:12;27.67;;;11.18;;
19024;SDS011;9645;51.448;6.260;2023-02-07T04:40:39;32.83;;;12.10;;
19024;SDS011;9645;51.448;6.260;2023-02-07T04:43:06;33.72;;;11.73;;
19024;SDS011;9645;51.448;6.260;2023-02-07T04:45:34;33.22;;;11.60;;
19024;SDS011;9645;51.448;6.260;2023-02-07T04:48:01;37.75;;;11.50;;
19024;SDS011;9645;51.448;6.260;2023-02-07T04:50:28;42.55;;;11.02;;
19024;SDS011;9645;51.448;6.260;2023-02-07T04:52:56;33.63;;;10.90;;
19024;SDS011;9645;51.448;6.260;2023-02-07T04:55:23;41.17;;;12.95;;
19024;SDS011;9645;51.448;6.260;2023-02-07T04:57:49;29.98;;;10.07;;
19024;SDS011;9645;51.448;6.260;2023-02-07T05:00:17;38.28;;;12.73;;
19024;SDS011;9645;51.448;6.260;2023-02-07T05:02:46;40.90;;;13.23;;
19024;SDS011;9645;51.448;6.260;2023-02-07T05:05:12;28.45;;;11.80;;
19024;SDS011;9645;51.448;6.260;2023-02-07T05:07:40;37.05;;;12.05;;
19024;SDS011;9645;51.448;6.260;2023-02-07T05:10:07;37.78;;;11.02;;
19024;SDS011;9645;51.448;6.260;2023-02-07T05:12:34;48.22;;;11.73;;
19024;SDS011;9645;51.448;6.260;2023-02-07T05:15:01;48.70;;;13.48;;
19024;SDS011;9645;51.448;6.260;2023-02-07T05:17:29;41.50;;;14.15;;
19024;SDS011;9645;51.448;6.260;2023-02-07T05:20:00;37.58;;;12.65;;
19024;SDS011;9645;51.448;6.260;2023-02-07T05:22:29;50.45;;;12.80;;
19024;SDS011;9645;51.448;6.260;2023-02-07T05:24:56;39.00;;;13.48;;
19024;SDS011;9645;51.448;6.260;2023-02-07T05:27:23;49.50;;;13.23;;
19024;SDS011;9645;51.448;6.260;2023-02-07T05:29:50;47.65;;;14.15;;
19024;SDS011;9645;51.448;6.260;2023-02-07T05:32:17;59.53;;;17.67;;
19024;SDS011;9645;51.448;6.260;2023-02-07T05:35:03;65.63;;;14.55;;
19024;SDS011;9645;51.448;6.260;2023-02-07T05:37:31;59.25;;;20.05;;
19024;SDS011;9645;51.448;6.260;2023-02-07T05:39:58;47.92;;;14.88;;
19024;SDS011;9645;51.448;6.260;2023-02-07T05:42:25;42.70;;;14.25;;
19024;SDS011;9645;51.448;6.260;2023-02-07T05:44:53;48.63;;;14.65;;
19024;SDS011;9645;51.448;6.260;2023-02-07T05:47:20;76.53;;;18.98;;
19024;SDS011;9645;51.448;6.260;2023-02-07T05:49:47;79.78;;;24.13;;
19024;SDS011;9645;51.448;6.260;2023-02-07T05:52:18;75.57;;;20.70;;
19024;SDS011;9645;51.448;6.260;2023-02-07T05:54:49;65.88;;;18.70;;
19024;SDS011;9645;51.448;6.260;2023-02-07T05:57:16;61.95;;;16.95;;
19024;SDS011;9645;51.448;6.260;2023-02-07T05:59:43;55.13;;;16.02;;
19024;SDS011;9645;51.448;6.260;2023-02-07T06:02:10;65.72;;;16.20;;
19024;SDS011;9645;51.448;6.260;2023-02-07T06:04:37;45.95;;;13.02;;
19024;SDS011;9645;51.448;6.260;2023-02-07T06:07:04;37.33;;;13.63;;
19024;SDS011;9645;51.448;6.260;2023-02-07T06:09:32;45.75;;;14.35;;
19024;SDS011;9645;51.448;6.260;2023-02-07T06:11:59;33.38;;;13.43;;
19024;SDS011;9645;51.448;6.260;2023-02-07T06:14:26;49.25;;;12.52;;
19024;SDS011;9645;51.448;6.260;2023-02-07T06:16:54;33.95;;;11.05;;
19024;SDS011;9645;51.448;6.260;2023-02-07T06:19:21;52.38;;;11.80;;
19024;SDS011;9645;51.448;6.260;2023-02-07T06:21:48;37.00;;;11.20;;
19024;SDS011;9645;51.448;6.260;2023-02-07T06:24:15;34.28;;;11.32;;
19024;SDS011;9645;51.448;6.260;2023-02-07T06:26:44;45.30;;;12.70;;
19024;SDS011;9645;51.448;6.260;2023-02-07T06:31:38;41.80;;;12.77;;
19024;SDS011;9645;51.448;6.260;2023-02-07T06:34:05;37.30;;;13.13;;
19024;SDS011;9645;51.448;6.260;2023-02-07T06:36:32;39.45;;;14.70;;
19024;SDS011;9645;51.448;6.260;2023-02-07T06:38:59;46.88;;;13.38;;
19024;SDS011;9645;51.448;6.260;2023-02-07T06:41:27;47.08;;;13.40;;
19024;SDS011;9645;51.448;6.260;2023-02-07T06:43:55;39.58;;;12.10;;
19024;SDS011;9645;51.448;6.260;2023-02-07T06:46:22;48.80;;;13.60;;
19024;SDS011;9645;51.448;6.260;2023-02-07T06:48:49;40.78;;;11.52;;
19024;SDS011;9645;51.448;6.260;2023-02-07T06:51:16;44.15;;;13.23;;
19024;SDS011;9645;51.448;6.260;2023-02-07T06:53:43;43.92;;;14.82;;
19024;SDS011;9645;51.448;6.260;2023-02-07T06:56:11;40.20;;;13.80;;
19024;SDS011;9645;51.448;6.260;2023-02-07T06:58:38;36.42;;;13.57;;
19024;SDS011;9645;51.448;6.260;2023-02-07T07:01:06;41.72;;;14.00;;
19024;SDS011;9645;51.448;6.260;2023-02-07T07:03:33;43.55;;;13.13;;
19024;SDS011;9645;51.448;6.260;2023-02-07T07:06:00;35.15;;;13.00;;
19024;SDS011;9645;51.448;6.260;2023-02-07T07:08:27;49.15;;;14.48;;
19024;SDS011;9645;51.448;6.260;2023-02-07T07:10:54;37.30;;;12.40;;
19024;SDS011;9645;51.448;6.260;2023-02-07T07:13:22;46.40;;;11.80;;
19024;SDS011;9645;51.448;6.260;2023-02-07T07:15:49;38.45;;;12.32;;
19024;SDS011;9645;51.448;6.260;2023-02-07T07:18:17;35.13;;;11.68;;
19024;SDS011;9645;51.448;6.260;2023-02-07T07:20:44;35.30;;;11.57;;
19024;SDS011;9645;51.448;6.260;2023-02-07T07:23:12;39.35;;;12.30;;
19024;SDS011;9645;51.448;6.260;2023-02-07T07:25:38;44.22;;;13.65;;
19024;SDS011;9645;51.448;6.260;2023-02-07T07:28:06;57.70;;;13.15;;
19024;SDS011;9645;51.448;6.260;2023-02-07T07:30:33;42.60;;;13.10;;
19024;SDS011;9645;51.448;6.260;2023-02-07T07:33:00;58.72;;;12.27;;
19024;SDS011;9645;51.448;6.260;2023-02-07T07:35:28;42.42;;;11.90;;
19024;SDS011;9645;51.448;6.260;2023-02-07T07:37:55;49.50;;;13.85;;
19024;SDS011;9645;51.448;6.260;2023-02-07T07:40:22;39.72;;;12.73;;
19024;SDS011;9645;51.448;6.260;2023-02-07T07:42:49;38.22;;;11.32;;
19024;SDS011;9645;51.448;6.260;2023-02-07T07:45:17;42.83;;;13.35;;
19024;SDS011;9645;51.448;6.260;2023-02-07T07:47:44;37.08;;;11.73;;
19024;SDS011;9645;51.448;6.260;2023-02-07T07:50:11;34.67;;;11.90;;
19024;SDS011;9645;51.448;6.260;2023-02-07T07:52:40;44.83;;;12.13;;
19024;SDS011;9645;51.448;6.260;2023-02-07T07:55:07;33.13;;;11.80;;
19024;SDS011;9645;51.448;6.260;2023-02-07T07:57:34;37.20;;;11.20;;
19024;SDS011;9645;51.448;6.260;2023-02-07T08:00:02;31.02;;;11.77;;
19024;SDS011;9645;51.448;6.260;2023-02-07T08:02:30;38.83;;;12.30;;
19024;SDS011;9645;51.448;6.260;2023-02-07T08:04:57;39.03;;;11.65;;
19024;SDS011;9645;51.448;6.260;2023-02-07T08:07:24;37.45;;;12.32;;
19024;SDS011;9645;51.448;6.260;2023-02-07T08:09:53;34.33;;;10.80;;
19024;SDS011;9645;51.448;6.260;2023-02-07T08:12:20;38.40;;;12.23;;
19024;SDS011;9645;51.448;6.260;2023-02-07T08:14:47;35.33;;;10.48;;
19024;SDS011;9645;51.448;6.260;2023-02-07T08:17:14;41.85;;;11.93;;
19024;SDS011;9645;51.448;6.260;2023-02-07T08:19:41;39.92;;;11.13;;
19024;SDS011;9645;51.448;6.260;2023-02-07T08:22:08;56.85;;;14.15;;
19024;SDS011;9645;51.448;6.260;2023-02-07T08:24:35;55.13;;;15.80;;
19024;SDS011;9645;51.448;6.260;2023-02-07T08:27:03;67.22;;;18.80;;
19024;SDS011;9645;51.448;6.260;2023-02-07T08:29:30;68.85;;;21.40;;
19024;SDS011;9645;51.448;6.260;2023-02-07T08:31:57;67.75;;;21.13;;
19024;SDS011;9645;51.448;6.260;2023-02-07T08:34:24;59.17;;;22.10;;
19024;SDS011;9645;51.448;6.260;2023-02-07T08:36:52;62.00;;;20.10;;
19024;SDS011;9645;51.448;6.260;2023-02-07T08:39:20;38.60;;;15.63;;
19024;SDS011;9645;51.448;6.260;2023-02-07T08:41:47;38.23;;;15.33;;
19024;SDS011;9645;51.448;6.260;2023-02-07T08:44:15;34.37;;;14.50;;
19024;SDS011;9645;51.448;6.260;2023-02-07T08:46:42;31.00;;;13.20;;
19024;SDS011;9645;51.448;6.260;2023-02-07T08:49:09;35.60;;;14.10;;
19024;SDS011;9645;51.448;6.260;2023-02-07T08:51:36;36.30;;;13.20;;
19024;SDS011;9645;51.448;6.260;2023-02-07T08:54:03;28.40;;;13.60;;
19024;SDS011;9645;51.448;6.260;2023-02-07T08:56:30;34.63;;;15.60;;
19024;SDS011;9645;51.448;6.260;2023-02-07T08:58:57;37.73;;;15.63;;
19024;SDS011;9645;51.448;6.260;2023-02-07T09:01:26;39.97;;;16.00;;
19024;SDS011;9645;51.448;6.260;2023-02-07T09:03:53;34.40;;;14.73;;
19024;SDS011;9645;51.448;6.260;2023-02-07T09:06:21;35.20;;;14.50;;
19024;SDS011;9645;51.448;6.260;2023-02-07T09:08:48;33.67;;;15.57;;
19024;SDS011;9645;51.448;6.260;2023-02-07T09:11:15;31.90;;;13.83;;
19024;SDS011;9645;51.448;6.260;2023-02-07T09:13:42;34.20;;;15.87;;
19024;SDS011;9645;51.448;6.260;2023-02-07T09:16:11;28.17;;;13.07;;
19024;SDS011;9645;51.448;6.260;2023-02-07T09:18:40;32.93;;;14.40;;
19024;SDS011;9645;51.448;6.260;2023-02-07T09:21:07;32.30;;;15.93;;
19024;SDS011;9645;51.448;6.260;2023-02-07T09:23:34;37.50;;;16.80;;
19024;SDS011;9645;51.448;6.260;2023-02-07T09:26:02;30.30;;;15.97;;
19024;SDS011;9645;51.448;6.260;2023-02-07T09:28:30;32.97;;;15.50;;
19024;SDS011;9645;51.448;6.260;2023-02-07T09:30:58;36.27;;;15.63;;
19024;SDS011;9645;51.448;6.260;2023-02-07T09:33:25;29.03;;;14.40;;
19024;SDS011;9645;51.448;6.260;2023-02-07T09:35:55;31.97;;;15.37;;
19024;SDS011;9645;51.448;6.260;2023-02-07T09:38:22;38.57;;;15.57;;
19024;SDS011;9645;51.448;6.260;2023-02-07T09:40:50;33.67;;;15.60;;
19024;SDS011;9645;51.448;6.260;2023-02-07T09:43:22;33.53;;;15.97;;
19024;SDS011;9645;51.448;6.260;2023-02-07T09:45:58;34.37;;;15.13;;
19024;SDS011;9645;51.448;6.260;2023-02-07T09:48:31;31.40;;;15.23;;
19024;SDS011;9645;51.448;6.260;2023-02-07T09:51:09;30.97;;;15.53;;
19024;SDS011;9645;51.448;6.260;2023-02-07T09:53:39;29.80;;;14.43;;
19024;SDS011;9645;51.448;6.260;2023-02-07T09:56:11;31.30;;;15.17;;
19024;SDS011;9645;51.448;6.260;2023-02-07T09:58:44;28.47;;;14.60;;
19024;SDS011;9645;51.448;6.260;2023-02-07T10:01:15;30.87;;;14.40;;
19024;SDS011;9645;51.448;6.260;2023-02-07T10:03:48;35.93;;;15.70;;
19024;SDS011;9645;51.448;6.260;2023-02-07T10:06:26;30.33;;;14.33;;
19024;SDS011;9645;51.448;6.260;2023-02-07T10:08:54;26.43;;;14.23;;
19024;SDS011;9645;51.448;6.260;2023-02-07T10:11:27;23.63;;;13.63;;
19024;SDS011;9645;51.448;6.260;2023-02-07T10:14:15;28.37;;;13.90;;
19024;SDS011;9645;51.448;6.260;2023-02-07T10:16:56;24.20;;;13.70;;
19024;SDS011;9645;51.448;6.260;2023-02-07T10:19:41;25.90;;;13.40;;
19024;SDS011;9645;51.448;6.260;2023-02-07T10:22:19;26.00;;;13.70;;
19024;SDS011;9645;51.448;6.260;2023-02-07T10:25:00;25.43;;;13.17;;
19024;SDS011;9645;51.448;6.260;2023-02-07T10:27:53;18.67;;;10.90;;
19024;SDS011;9645;51.448;6.260;2023-02-07T10:30:27;16.10;;;9.27;;
19024;SDS011;9645;51.448;6.260;2023-02-07T10:32:57;16.53;;;9.80;;
19024;SDS011;9645;51.448;6.260;2023-02-07T10:35:33;17.00;;;9.30;;
19024;SDS011;9645;51.448;6.260;2023-02-07T10:38:19;14.80;;;9.43;;
19024;SDS011;9645;51.448;6.260;2023-02-07T10:40:51;12.23;;;7.97;;
19024;SDS011;9645;51.448;6.260;2023-02-07T10:43:25;11.63;;;7.70;;
19024;SDS011;9645;51.448;6.260;2023-02-07T10:45:55;10.37;;;7.73;;
19024;SDS011;9645;51.448;6.260;2023-02-07T10:48:25;13.17;;;8.27;;
19024;SDS011;9645;51.448;6.260;2023-02-07T10:50:52;10.63;;;7.93;;
19024;SDS011;9645;51.448;6.260;2023-02-07T10:56:13;12.27;;;8.00;;
19024;SDS011;9645;51.448;6.260;2023-02-07T10:58:42;11.70;;;7.87;;
19024;SDS011;9645;51.448;6.260;2023-02-07T11:01:15;11.87;;;8.70;;
19024;SDS011;9645;51.448;6.260;2023-02-07T11:03:44;12.63;;;8.10;;
19024;SDS011;9645;51.448;6.260;2023-02-07T11:06:12;10.13;;;7.80;;
19024;SDS011;9645;51.448;6.260;2023-02-07T11:08:39;11.30;;;7.30;;
19024;SDS011;9645;51.448;6.260;2023-02-07T11:11:22;8.67;;;7.30;;
19024;SDS011;9645;51.448;6.260;2023-02-07T11:13:52;8.23;;;6.43;;
19024;SDS011;9645;51.448;6.260;2023-02-07T11:16:20;8.10;;;6.37;;
19024;SDS011;9645;51.448;6.260;2023-02-07T11:18:54;7.37;;;6.53;;
19024;SDS011;9645;51.448;6.260;2023-02-07T11:21:27;8.40;;;6.53;;
19024;SDS011;9645;51.448;6.260;2023-02-07T11:23:59;8.90;;;7.10;;
19024;SDS011;9645;51.448;6.260;2023-02-07T11:26:30;9.10;;;7.10;;
19024;SDS011;9645;51.448;6.260;2023-02-07T11:29:04;11.23;;;7.60;;
19024;SDS011;9645;51.448;6.260;2023-02-07T11:31:33;11.30;;;7.03;;
19024;SDS011;9645;51.448;6.260;2023-02-07T11:34:06;9.67;;;6.97;;
19024;SDS011;9645;51.448;6.260;2023-02-07T11:36:52;11.17;;;7.37;;
19024;SDS011;9645;51.448;6.260;2023-02-07T11:39:21;14.23;;;6.73;;
19024;SDS011;9645;51.448;6.260;2023-02-07T11:41:54;21.57;;;6.50;;
19024;SDS011;9645;51.448;6.260;2023-02-07T11:44:25;10.80;;;7.40;;
19024;SDS011;9645;51.448;6.260;2023-02-07T11:46:55;10.43;;;6.47;;
19024;SDS011;9645;51.448;6.260;2023-02-07T11:49:31;11.87;;;6.80;;
19024;SDS011;9645;51.448;6.260;2023-02-07T11:52:07;16.67;;;7.43;;
19024;SDS011;9645;51.448;6.260;2023-02-07T11:54:34;13.00;;;7.67;;
19024;SDS011;9645;51.448;6.260;2023-02-07T11:57:05;9.40;;;7.60;;
19024;SDS011;9645;51.448;6.260;2023-02-07T11:59:42;9.43;;;7.13;;
19024;SDS011;9645;51.448;6.260;2023-02-07T12:02:14;9.93;;;7.23;;
19024;SDS011;9645;51.448;6.260;2023-02-07T12:04:45;12.60;;;6.60;;
19024;SDS011;9645;51.448;6.260;2023-02-07T12:07:12;9.40;;;6.97;;
19024;SDS011;9645;51.448;6.260;2023-02-07T12:09:44;13.10;;;6.27;;
19024;SDS011;9645;51.448;6.260;2023-02-07T12:12:17;6.97;;;5.77;;
19024;SDS011;9645;51.448;6.260;2023-02-07T12:14:48;8.93;;;7.03;;
19024;SDS011;9645;51.448;6.260;2023-02-07T12:17:20;10.03;;;6.87;;
19024;SDS011;9645;51.448;6.260;2023-02-07T12:19:52;7.93;;;5.60;;
19024;SDS011;9645;51.448;6.260;2023-02-07T12:22:22;9.33;;;6.20;;
19024;SDS011;9645;51.448;6.260;2023-02-07T12:24:55;8.43;;;7.10;;
19024;SDS011;9645;51.448;6.260;2023-02-07T12:27:29;11.90;;;7.60;;
19024;SDS011;9645;51.448;6.260;2023-02-07T12:30:03;8.30;;;6.40;;
19024;SDS011;9645;51.448;6.260;2023-02-07T12:32:44;8.60;;;6.37;;
19024;SDS011;9645;51.448;6.260;2023-02-07T12:35:17;16.80;;;6.60;;
19024;SDS011;9645;51.448;6.260;2023-02-07T12:37:53;9.73;;;6.63;;
19024;SDS011;9645;51.448;6.260;2023-02-07T12:40:27;7.30;;;5.73;;
19024;SDS011;9645;51.448;6.260;2023-02-07T12:43:00;8.50;;;5.70;;
19024;SDS011;9645;51.448;6.260;2023-02-07T12:48:31;7.90;;;6.10;;
19024;SDS011;9645;51.448;6.260;2023-02-07T12:51:03;7.53;;;5.90;;
19024;SDS011;9645;51.448;6.260;2023-02-07T12:53:44;8.73;;;5.87;;
19024;SDS011;9645;51.448;6.260;2023-02-07T12:56:27;12.23;;;6.43;;
19024;SDS011;9645;51.448;6.260;2023-02-07T12:59:09;8.50;;;5.50;;
19024;SDS011;9645;51.448;6.260;2023-02-07T13:01:43;6.50;;;5.43;;
19024;SDS011;9645;51.448;6.260;2023-02-07T13:04:31;8.73;;;5.93;;
19024;SDS011;9645;51.448;6.260;2023-02-07T13:07:17;6.93;;;5.90;;
19024;SDS011;9645;51.448;6.260;2023-02-07T13:09:53;8.73;;;6.27;;
19024;SDS011;9645;51.448;6.260;2023-02-07T13:12:27;6.80;;;5.80;;
19024;SDS011;9645;51.448;6.260;2023-02-07T13:15:07;8.17;;;6.30;;
19024;SDS011;9645;51.448;6.260;2023-02-07T13:17:45;8.80;;;5.87;;
19024;SDS011;9645;51.448;6.260;2023-02-07T13:20:22;7.50;;;6.07;;
19024;SDS011;9645;51.448;6.260;2023-02-07T13:23:01;8.30;;;6.03;;
19024;SDS011;9645;51.448;6.260;2023-02-07T13:25:34;8.67;;;6.30;;
19024;SDS011;9645;51.448;6.260;2023-02-07T13:28:05;9.00;;;6.87;;
19024;SDS011;9645;51.448;6.260;2023-02-07T13:30:40;8.10;;;5.97;;
19024;SDS011;9645;51.448;6.260;2023-02-07T13:33:14;9.80;;;6.50;;
19024;SDS011;9645;51.448;6.260;2023-02-07T13:35:51;8.70;;;6.90;;
19024;SDS011;9645;51.448;6.260;2023-02-07T13:38:25;9.50;;;6.03;;
19024;SDS011;9645;51.448;6.260;2023-02-07T13:41:10;9.87;;;6.90;;
19024;SDS011;9645;51.448;6.260;2023-02-07T13:43:48;9.10;;;6.17;;
19024;SDS011;9645;51.448;6.260;2023-02-07T13:46:36;8.53;;;6.20;;
19024;SDS011;9645;51.448;6.260;2023-02-07T13:49:13;9.50;;;5.67;;
19024;SDS011;9645;51.448;6.260;2023-02-07T13:51:49;10.17;;;5.80;;
19024;SDS011;9645;51.448;6.260;2023-02-07T13:54:28;8.10;;;5.67;;
19024;SDS011;9645;51.448;6.260;2023-02-07T13:57:01;9.63;;;6.00;;
19024;SDS011;9645;51.448;6.260;2023-02-07T14:00:06;8.90;;;6.60;;
19024;SDS011;9645;51.448;6.260;2023-02-07T14:02:46;9.40;;;6.30;;
19024;SDS011;9645;51.448;6.260;2023-02-07T14:05:21;8.27;;;6.17;;
19024;SDS011;9645;51.448;6.260;2023-02-07T14:07:55;8.93;;;6.00;;
19024;SDS011;9645;51.448;6.260;2023-02-07T14:10:36;23.83;;;8.30;;
19024;SDS011;9645;51.448;6.260;2023-02-07T14:13:29;9.87;;;6.57;;
19024;SDS011;9645;51.448;6.260;2023-02-07T14:15:59;9.57;;;6.27;;
19024;SDS011;9645;51.448;6.260;2023-02-07T14:18:49;9.13;;;6.23;;
19024;SDS011;9645;51.448;6.260;2023-02-07T14:21:23;11.40;;;7.30;;
19024;SDS011;9645;51.448;6.260;2023-02-07T14:23:58;10.30;;;6.30;;
19024;SDS011;9645;51.448;6.260;2023-02-07T14:26:50;8.27;;;5.60;;
19024;SDS011;9645;51.448;6.260;2023-02-07T14:35:43;14.73;;;7.40;;
19024;SDS011;9645;51.448;6.260;2023-02-07T14:38:29;14.77;;;7.23;;
19024;SDS011;9645;51.448;6.260;2023-02-07T14:41:01;11.60;;;6.57;;
19024;SDS011;9645;51.448;6.260;2023-02-07T14:43:33;13.57;;;7.00;;
19024;SDS011;9645;51.448;6.260;2023-02-07T14:46:07;12.77;;;6.37;;
19024;SDS011;9645;51.448;6.260;2023-02-07T14:48:39;13.07;;;6.60;;
19024;SDS011;9645;51.448;6.260;2023-02-07T14:51:14;12.85;;;6.40;;
19024;SDS011;9645;51.448;6.260;2023-02-07T14:53:44;12.10;;;6.65;;
19024;SDS011;9645;51.448;6.260;2023-02-07T14:56:18;12.13;;;6.00;;
19024;SDS011;9645;51.448;6.260;2023-02-07T14:58:54;13.23;;;6.93;;
19024;SDS011;9645;51.448;6.260;2023-02-07T15:01:24;14.48;;;5.70;;
19024;SDS011;9645;51.448;6.260;2023-02-07T15:04:00;12.50;;;6.50;;
19024;SDS011;9645;51.448;6.260;2023-02-07T15:06:34;13.35;;;5.70;;
19024;SDS011;9645;51.448;6.260;2023-02-07T15:09:04;12.00;;;6.22;;
19024;SDS011;9645;51.448;6.260;2023-02-07T15:11:31;11.43;;;5.90;;
19024;SDS011;9645;51.448;6.260;2023-02-07T15:13:59;9.20;;;5.10;;
19024;SDS011;9645;51.448;6.260;2023-02-07T15:16:28;14.43;;;6.57;;
19024;SDS011;9645;51.448;6.260;2023-02-07T15:18:58;16.73;;;6.72;;